Time;durP1;ratioP1;P1;durP2;ratioP2;P2;SDS_P1;SDS_P2;PMS_P1;PMS_P2;Temp;Humidity;BMP_temperature;BMP_pressure;BME280_temperature;BME280_humidity;BME280_pressure;Samples;Min_cycle;Max_cycle;Signal;HPM_P1;HPM_P2
2023/12/07 00:00:32;;;;;;;34.60;22.55;;;4.00;99.90;;;;;;4975867;28;20019;-75
2023/12/07 00:02:59;;;;;;;38.25;23.88;;;3.90;99.90;;;;;;4976114;28;20049;-80
2023/12/07 00:05:25;;;;;;;34.38;22.20;;;3.90;99.90;;;;;;4975744;28;20057;-82
2023/12/07 00:07:51;;;;;;;34.13;22.42;;;3.90;99.90;;;;;;4976192;28;20054;-78
2023/12/07 00:10:17;;;;;;;35.42;21.52;;;3.90;99.90;;;;;;4975380;28;20133;-82
2023/12/07 00:12:43;;;;;;;40.95;22.13;;;3.90;99.90;;;;;;4975826;28;20035;-80
2023/12/07 00:15:09;;;;;;;34.33;21.55;;;3.90;99.90;;;;;;4975471;28;20027;-81
2023/12/07 00:17:35;;;;;;;32.30;20.23;;;3.90;99.90;;;;;;4975946;28;20026;-79
2023/12/07 00:20:01;;;;;;;34.00;20.02;;;3.90;99.90;;;;;;4975467;28;20387;-81
2023/12/07 00:22:28;;;;;;;35.55;21.55;;;3.90;99.90;;;;;;4958552;28;20495;-82
2023/12/07 00:24:54;;;;;;;36.38;22.83;;;3.90;99.90;;;;;;4975640;28;20019;-79
2023/12/07 00:27:20;;;;;;;33.45;21.10;;;3.80;99.90;;;;;;4975406;28;20049;-81
2023/12/07 00:29:46;;;;;;;33.25;20.02;;;3.80;99.90;;;;;;4975556;28;20030;-85
2023/12/07 00:32:11;;;;;;;33.47;20.05;;;3.80;99.90;;;;;;4975231;28;20041;-81
2023/12/07 00:34:37;;;;;;;33.35;20.50;;;3.90;99.90;;;;;;4975443;28;20027;-80
2023/12/07 00:37:03;;;;;;;31.60;20.23;;;4.00;99.90;;;;;;4975298;28;20030;-81
2023/12/07 00:39:29;;;;;;;31.50;18.98;;;4.00;99.90;;;;;;4975070;28;20090;-82
2023/12/07 00:41:55;;;;;;;30.42;19.75;;;4.00;99.90;;;;;;4974511;28;20109;-80
2023/12/07 00:44:21;;;;;;;33.90;20.60;;;4.00;99.90;;;;;;4975342;28;20113;-77
2023/12/07 00:46:47;;;;;;;31.75;20.27;;;4.00;99.90;;;;;;4974973;28;20034;-80
2023/12/07 00:49:13;;;;;;;34.92;20.52;;;4.10;99.90;;;;;;4975065;28;20027;-81
2023/12/07 00:51:38;;;;;;;31.50;19.92;;;4.10;99.90;;;;;;4975291;28;20082;-82
2023/12/07 00:54:04;;;;;;;34.35;20.00;;;4.20;99.90;;;;;;4975008;28;20430;-80
2023/12/07 00:56:30;;;;;;;30.27;19.73;;;4.20;99.90;;;;;;4975140;28;20066;-80
2023/12/07 00:58:56;;;;;;;29.98;20.65;;;4.20;99.90;;;;;;4974793;28;20073;-80
2023/12/07 01:01:22;;;;;;;31.05;18.40;;;4.20;99.90;;;;;;4975122;28;20015;-79
2023/12/07 01:03:48;;;;;;;31.17;17.90;;;4.20;99.90;;;;;;4974586;28;20034;-79
2023/12/07 01:06:16;;;;;;;30.33;18.40;;;4.30;99.90;;;;;;4974949;28;20022;-81
2023/12/07 01:08:43;;;;;;;30.50;19.55;;;4.30;99.90;;;;;;4974292;28;20031;-80
2023/12/07 01:11:09;;;;;;;30.88;19.58;;;4.20;99.90;;;;;;4974632;28;20043;-80
2023/12/07 01:13:36;;;;;;;33.70;20.77;;;4.20;99.90;;;;;;4974344;28;20146;-81
2023/12/07 01:16:02;;;;;;;38.15;19.92;;;4.20;99.90;;;;;;4974734;28;20413;-79
2023/12/07 01:18:28;;;;;;;37.28;20.95;;;4.20;99.90;;;;;;4974797;28;20034;-76
2023/12/07 01:20:53;;;;;;;41.92;22.52;;;4.20;99.90;;;;;;4974540;28;20318;-82
2023/12/07 01:23:19;;;;;;;39.17;22.38;;;4.20;99.90;;;;;;4974605;28;20382;-80
2023/12/07 01:25:45;;;;;;;39.25;24.75;;;4.30;99.90;;;;;;4974393;28;20023;-81
2023/12/07 01:28:11;;;;;;;43.17;24.80;;;4.30;99.90;;;;;;4974227;28;20037;-82
2023/12/07 01:30:37;;;;;;;46.13;26.73;;;4.30;99.90;;;;;;4974432;28;20098;-77
2023/12/07 01:33:03;;;;;;;43.85;25.38;;;4.40;99.90;;;;;;4974327;28;20118;-81
2023/12/07 01:35:29;;;;;;;43.33;24.38;;;4.40;99.90;;;;;;4974310;28;20472;-81
2023/12/07 01:37:55;;;;;;;45.53;25.25;;;4.40;99.90;;;;;;4974123;28;20129;-81
2023/12/07 01:40:21;;;;;;;38.45;23.67;;;4.40;99.90;;;;;;4973940;28;20089;-77
2023/12/07 01:42:54;;;;;;;36.53;21.75;;;4.40;99.90;;;;;;4974047;28;20031;-82
2023/12/07 01:45:20;;;;;;;33.67;19.83;;;4.40;99.90;;;;;;4974222;28;20118;-81
2023/12/07 01:47:47;;;;;;;33.70;19.65;;;4.40;99.90;;;;;;4973875;28;20513;-80
2023/12/07 01:50:16;;;;;;;34.20;19.83;;;4.30;99.90;;;;;;4956884;28;20037;-82
2023/12/07 01:52:47;;;;;;;34.63;20.20;;;4.40;99.90;;;;;;4973406;28;20059;-82
2023/12/07 01:55:14;;;;;;;32.88;18.67;;;4.40;99.90;;;;;;4973428;28;20393;-76
2023/12/07 01:57:41;;;;;;;33.55;20.00;;;4.30;99.90;;;;;;4973616;28;20066;-81
2023/12/07 02:00:09;;;;;;;33.83;19.15;;;4.30;99.90;;;;;;4973750;28;20077;-77
2023/12/07 02:02:36;;;;;;;36.40;20.33;;;4.40;99.90;;;;;;4974104;28;20018;-82
2023/12/07 02:05:03;;;;;;;31.20;18.88;;;4.40;99.90;;;;;;4973587;28;20046;-82
2023/12/07 02:07:30;;;;;;;30.58;17.83;;;4.40;99.90;;;;;;4974006;28;20105;-78
2023/12/07 02:10:00;;;;;;;34.03;19.50;;;4.50;99.90;;;;;;4973110;28;20065;-80
2023/12/07 02:12:29;;;;;;;33.67;19.25;;;4.50;99.90;;;;;;4973650;28;20031;-80
2023/12/07 02:14:56;;;;;;;33.15;20.40;;;4.50;99.90;;;;;;4973554;28;20039;-82
2023/12/07 02:17:28;;;;;;;35.15;20.83;;;4.40;99.90;;;;;;4973616;28;20029;-80
2023/12/07 02:20:01;;;;;;;38.88;20.50;;;4.50;99.90;;;;;;4973253;28;20039;-79
2023/12/07 02:22:39;;;;;;;30.17;18.98;;;4.50;99.90;;;;;;4973516;28;20089;-79
2023/12/07 02:25:08;;;;;;;38.08;22.95;;;4.50;99.90;;;;;;4973348;28;20029;-80
2023/12/07 02:27:41;;;;;;;33.70;19.23;;;4.50;99.90;;;;;;4973182;28;20026;-77
2023/12/07 02:30:09;;;;;;;39.25;21.38;;;4.50;99.90;;;;;;4973162;28;20027;-78
2023/12/07 02:32:39;;;;;;;39.20;21.17;;;4.50;99.90;;;;;;4973494;28;20022;-81
2023/12/07 02:35:06;;;;;;;40.85;23.10;;;4.50;99.90;;;;;;4955786;28;20097;-81
2023/12/07 02:37:40;;;;;;;35.45;22.17;;;4.50;99.90;;;;;;4972888;28;20026;-81
2023/12/07 02:40:10;;;;;;;38.65;22.08;;;4.50;99.90;;;;;;4972998;28;20046;-80
2023/12/07 02:42:39;;;;;;;35.92;20.23;;;4.40;99.90;;;;;;4972988;28;20356;-82
2023/12/07 02:45:06;;;;;;;33.75;20.88;;;4.40;99.90;;;;;;4973524;28;20058;-80
2023/12/07 02:47:32;;;;;;;36.50;20.90;;;4.40;99.90;;;;;;4972853;28;20078;-76
2023/12/07 02:49:58;;;;;;;33.65;20.33;;;4.40;99.90;;;;;;4973330;28;20026;-81
2023/12/07 02:52:24;;;;;;;37.78;20.60;;;4.30;99.90;;;;;;4972918;28;20453;-76
2023/12/07 02:54:50;;;;;;;39.05;21.55;;;4.30;99.90;;;;;;4973171;28;20050;-82
2023/12/07 02:57:15;;;;;;;34.75;21.40;;;4.20;99.90;;;;;;4972643;28;20037;-81
2023/12/07 02:59:41;;;;;;;34.95;20.20;;;4.20;99.90;;;;;;4973017;28;20042;-79
2023/12/07 03:02:07;;;;;;;36.50;19.60;;;4.20;99.90;;;;;;4972763;28;20335;-82
2023/12/07 03:04:33;;;;;;;38.40;21.20;;;4.20;99.90;;;;;;4973648;28;20015;-75
2023/12/07 03:06:59;;;;;;;37.17;21.75;;;4.20;99.90;;;;;;4977005;28;20027;-80
2023/12/07 03:09:25;;;;;;;35.22;22.20;;;4.10;99.90;;;;;;4959297;28;20042;-79
2023/12/07 03:11:51;;;;;;;34.28;21.25;;;4.10;99.90;;;;;;4976515;28;20505;-82
2023/12/07 03:14:19;;;;;;;34.53;20.75;;;4.10;99.90;;;;;;4976857;28;20137;-77
2023/12/07 03:16:45;;;;;;;37.13;20.95;;;4.10;99.90;;;;;;4959285;28;20026;-82
2023/12/07 03:19:11;;;;;;;33.70;19.80;;;4.00;99.90;;;;;;4976614;28;20066;-81
2023/12/07 03:21:42;;;;;;;36.40;20.55;;;3.90;99.90;;;;;;4976730;28;20105;-79
2023/12/07 03:24:09;;;;;;;32.05;18.75;;;3.90;99.90;;;;;;4976663;28;20031;-81
2023/12/07 03:26:35;;;;;;;33.75;18.88;;;4.00;99.90;;;;;;4976728;28;20026;-81
2023/12/07 03:29:01;;;;;;;36.90;19.48;;;3.90;99.90;;;;;;4976754;28;20090;-77
2023/12/07 03:31:28;;;;;;;35.03;18.60;;;3.90;99.90;;;;;;4976704;28;20073;-81
2023/12/07 03:33:54;;;;;;;34.25;18.83;;;3.80;99.90;;;;;;4959477;28;20054;-82
2023/12/07 03:36:20;;;;;;;29.73;17.45;;;3.90;99.90;;;;;;4976336;28;20410;-77
2023/12/07 03:38:46;;;;;;;30.98;16.63;;;3.90;99.90;;;;;;4987052;28;20049;-82
2023/12/07 03:41:12;;;;;;;26.60;14.75;;;3.80;99.90;;;;;;4978428;28;20466;-81
2023/12/07 03:43:38;;;;;;;29.55;15.18;;;3.80;99.90;;;;;;4976361;28;20553;-82
2023/12/07 03:46:05;;;;;;;29.48;16.55;;;3.80;99.90;;;;;;4976114;28;20019;-80
2023/12/07 03:48:31;;;;;;;26.38;15.32;;;3.70;99.90;;;;;;4976626;28;20043;-77
2023/12/07 03:50:57;;;;;;;25.70;15.65;;;3.80;99.90;;;;;;4976245;28;20098;-82
2023/12/07 03:53:23;;;;;;;26.92;14.75;;;3.80;99.90;;;;;;4976384;28;20085;-80
2023/12/07 03:55:49;;;;;;;27.33;16.92;;;3.80;99.90;;;;;;4975839;28;20382;-82
2023/12/07 03:58:15;;;;;;;30.02;17.02;;;3.80;99.90;;;;;;4975893;28;20033;-82
2023/12/07 04:00:41;;;;;;;24.92;14.35;;;3.80;99.90;;;;;;4975966;28;20030;-77
2023/12/07 04:03:07;;;;;;;27.27;17.70;;;3.80;99.90;;;;;;4975940;28;20107;-81
2023/12/07 04:05:33;;;;;;;31.05;16.45;;;3.80;99.90;;;;;;4976478;28;20098;-81
2023/12/07 04:07:59;;;;;;;26.70;16.10;;;3.80;99.90;;;;;;4975824;28;20027;-76
2023/12/07 04:10:25;;;;;;;27.08;15.32;;;3.80;99.90;;;;;;4975639;28;20070;-81
2023/12/07 04:12:52;;;;;;;29.40;16.77;;;3.80;99.90;;;;;;4975601;28;20035;-80
2023/12/07 04:15:19;;;;;;;25.83;14.90;;;3.70;99.90;;;;;;4973900;28;20070;-82
2023/12/07 04:17:46;;;;;;;23.88;14.63;;;3.70;99.90;;;;;;4962494;28;20031;-81
2023/12/07 04:20:13;;;;;;;23.23;14.52;;;3.70;99.90;;;;;;4971308;28;20386;-81
2023/12/07 04:22:39;;;;;;;27.70;15.70;;;3.70;99.90;;;;;;4975673;28;20037;-80
2023/12/07 04:25:06;;;;;;;26.75;15.23;;;3.70;99.90;;;;;;4975658;28;20077;-81
2023/12/07 04:27:33;;;;;;;27.45;14.68;;;3.70;99.90;;;;;;4975667;28;20426;-75
2023/12/07 04:29:59;;;;;;;23.77;14.27;;;3.70;99.90;;;;;;4975492;28;20026;-82
2023/12/07 04:32:25;;;;;;;23.75;14.02;;;3.70;99.90;;;;;;4975464;28;20023;-81
2023/12/07 04:34:52;;;;;;;25.65;14.43;;;3.80;99.90;;;;;;4975448;28;20463;-76
2023/12/07 04:37:18;;;;;;;23.52;13.95;;;3.80;99.90;;;;;;4975152;28;20177;-79
2023/12/07 04:39:44;;;;;;;25.33;15.48;;;3.80;99.90;;;;;;4975219;28;20117;-79
2023/12/07 04:42:10;;;;;;;21.25;12.50;;;3.80;99.90;;;;;;4957922;28;20038;-82
2023/12/07 04:44:35;;;;;;;23.65;13.88;;;3.70;99.90;;;;;;4975219;28;20423;-82
2023/12/07 04:47:01;;;;;;;22.25;12.88;;;3.80;99.90;;;;;;4957688;28;20042;-78
2023/12/07 04:49:27;;;;;;;24.80;14.05;;;3.70;99.90;;;;;;4976922;28;20066;-80
2023/12/07 04:51:53;;;;;;;26.17;15.07;;;3.70;99.90;;;;;;4979301;28;20031;-79
2023/12/07 04:54:19;;;;;;;24.38;14.52;;;3.70;99.90;;;;;;4978143;28;20027;-82
2023/12/07 04:56:45;;;;;;;23.98;14.07;;;3.70;99.90;;;;;;4976489;28;20114;-83
2023/12/07 04:59:11;;;;;;;24.08;13.68;;;3.70;99.90;;;;;;4975381;28;20046;-81
2023/12/07 05:01:37;;;;;;;23.42;13.55;;;3.70;99.90;;;;;;4975412;28;20027;-78
2023/12/07 05:04:05;;;;;;;22.92;12.50;;;3.80;99.90;;;;;;4974895;28;20135;-74
2023/12/07 05:06:32;;;;;;;20.27;12.38;;;3.80;99.90;;;;;;4974930;28;20058;-78
2023/12/07 05:08:58;;;;;;;20.83;13.13;;;3.80;99.90;;;;;;4974475;28;20030;-81
2023/12/07 05:11:24;;;;;;;24.10;13.50;;;3.80;99.90;;;;;;4974747;28;20375;-78
2023/12/07 05:13:50;;;;;;;22.90;13.60;;;3.80;99.90;;;;;;4974415;28;20739;-82
2023/12/07 05:16:16;;;;;;;22.33;12.73;;;3.80;99.90;;;;;;4965242;28;20123;-83
2023/12/07 05:18:41;;;;;;;22.08;12.35;;;3.80;99.90;;;;;;4966252;28;20038;-81
2023/12/07 05:21:07;;;;;;;20.70;12.10;;;3.80;99.90;;;;;;4973214;28;20038;-81
2023/12/07 05:23:34;;;;;;;19.77;11.43;;;3.80;99.90;;;;;;4954321;28;20386;-81
2023/12/07 05:26:00;;;;;;;21.00;12.70;;;3.70;99.90;;;;;;4974712;28;20023;-83
2023/12/07 05:28:26;;;;;;;20.65;13.13;;;3.70;99.90;;;;;;4974909;28;20027;-81
2023/12/07 05:30:52;;;;;;;20.10;11.70;;;3.70;99.90;;;;;;4974676;28;20038;-81
2023/12/07 05:33:21;;;;;;;21.77;13.82;;;3.70;99.90;;;;;;4974208;28;20029;-77
2023/12/07 05:35:48;;;;;;;21.45;13.10;;;3.70;99.90;;;;;;4974361;28;20054;-80
2023/12/07 05:38:13;;;;;;;21.45;12.48;;;3.70;99.90;;;;;;4973797;28;20116;-78
2023/12/07 05:40:39;;;;;;;21.20;12.52;;;3.70;99.90;;;;;;4974077;28;20081;-78
2023/12/07 05:43:06;;;;;;;24.25;14.40;;;3.70;99.90;;;;;;4974283;28;20031;-77
2023/12/07 05:45:31;;;;;;;23.38;13.45;;;3.60;99.90;;;;;;4974047;28;20026;-78
2023/12/07 05:47:57;;;;;;;23.30;13.25;;;3.60;99.90;;;;;;4974255;28;20466;-78
2023/12/07 05:50:23;;;;;;;21.50;12.15;;;3.60;99.90;;;;;;4973895;28;20041;-79
2023/12/07 05:52:49;;;;;;;20.77;12.85;;;3.60;99.90;;;;;;4974073;28;20050;-79
2023/12/07 05:55:15;;;;;;;19.77;11.95;;;3.70;99.90;;;;;;4973812;28;20031;-78
2023/12/07 05:57:41;;;;;;;21.58;12.32;;;3.70;99.90;;;;;;4974020;28;20027;-78
2023/12/07 06:00:09;;;;;;;22.63;13.20;;;3.70;99.90;;;;;;4973313;28;20097;-73
2023/12/07 06:02:38;;;;;;;20.73;13.57;;;3.70;99.90;;;;;;4973347;28;20488;-78
2023/12/07 06:05:04;;;;;;;21.75;12.88;;;3.70;99.90;;;;;;4974184;28;20082;-79
2023/12/07 06:07:30;;;;;;;22.65;13.45;;;3.70;99.90;;;;;;4973777;28;20070;-80
2023/12/07 06:09:56;;;;;;;22.05;12.88;;;3.70;99.90;;;;;;4973672;28;20066;-80
2023/12/07 06:12:22;;;;;;;20.67;12.43;;;3.80;99.90;;;;;;4973901;28;20070;-78
2023/12/07 06:14:49;;;;;;;24.77;13.65;;;3.80;99.90;;;;;;4973785;28;20086;-76
2023/12/07 06:17:15;;;;;;;23.85;15.05;;;3.90;99.90;;;;;;4973576;28;20019;-79
2023/12/07 06:19:42;;;;;;;24.92;14.95;;;3.80;99.90;;;;;;4973852;28;20057;-77
2023/12/07 06:22:08;;;;;;;28.05;15.25;;;3.90;99.90;;;;;;4973422;28;20023;-77
2023/12/07 06:24:35;;;;;;;22.85;12.95;;;3.90;99.90;;;;;;4973568;28;20466;-75
2023/12/07 06:27:02;;;;;;;25.08;15.10;;;3.90;99.90;;;;;;4973777;28;20025;-81
2023/12/07 06:29:29;;;;;;;21.40;13.05;;;4.00;99.90;;;;;;4972955;28;20043;-81
2023/12/07 06:31:55;;;;;;;23.02;14.48;;;4.00;99.90;;;;;;4973681;28;20019;-80
2023/12/07 06:34:21;;;;;;;21.30;13.27;;;4.00;99.90;;;;;;4973083;28;20113;-76
2023/12/07 06:36:47;;;;;;;21.58;13.23;;;4.00;99.90;;;;;;4973553;28;20078;-79
2023/12/07 06:39:14;;;;;;;21.05;12.15;;;4.10;99.90;;;;;;4972387;28;20043;-80
2023/12/07 06:41:40;;;;;;;25.70;15.13;;;4.10;99.90;;;;;;4973565;28;20022;-79
2023/12/07 06:44:09;;;;;;;21.95;13.30;;;4.10;99.90;;;;;;4972977;28;20363;-75
2023/12/07 06:46:34;;;;;;;22.80;14.23;;;4.10;99.90;;;;;;4973455;28;20019;-78
2023/12/07 06:49:00;;;;;;;25.20;15.48;;;4.10;99.90;;;;;;4972986;28;20113;-76
2023/12/07 06:51:26;;;;;;;23.70;15.30;;;4.20;99.90;;;;;;4973190;28;20023;-80
2023/12/07 06:53:52;;;;;;;27.38;15.57;;;4.20;99.90;;;;;;4973243;28;20442;-80
2023/12/07 06:56:18;;;;;;;23.70;15.25;;;4.20;99.90;;;;;;4973056;28;20474;-78
2023/12/07 06:58:44;;;;;;;25.73;15.60;;;4.20;99.90;;;;;;4972922;28;20038;-80
2023/12/07 07:01:10;;;;;;;26.65;15.88;;;4.30;99.90;;;;;;4972323;28;20496;-77
2023/12/07 07:03:36;;;;;;;26.98;15.95;;;4.30;99.90;;;;;;4973138;28;20034;-79
2023/12/07 07:06:02;;;;;;;26.58;15.68;;;4.40;99.90;;;;;;4972945;28;20485;-76
2023/12/07 07:08:28;;;;;;;28.13;15.95;;;4.40;99.90;;;;;;4972722;28;20062;-75
2023/12/07 07:10:56;;;;;;;26.63;16.75;;;4.40;99.90;;;;;;4972762;28;20039;-79
2023/12/07 07:13:21;;;;;;;26.23;14.95;;;4.40;99.90;;;;;;4972844;28;20086;-79
2023/12/07 07:15:50;;;;;;;28.15;16.88;;;4.40;99.90;;;;;;4972778;28;20023;-76
2023/12/07 07:18:16;;;;;;;26.23;15.70;;;4.40;99.90;;;;;;4972701;28;20470;-80
2023/12/07 07:20:42;;;;;;;34.28;16.40;;;4.40;99.90;;;;;;4973075;28;20026;-79
2023/12/07 07:23:08;;;;;;;28.00;16.55;;;4.40;99.90;;;;;;4972924;28;20038;-79
2023/12/07 07:25:34;;;;;;;29.77;17.92;;;4.40;99.90;;;;;;4972914;28;20081;-80
2023/12/07 07:28:00;;;;;;;26.42;16.92;;;4.40;99.90;;;;;;4972660;28;20038;-76
2023/12/07 07:30:26;;;;;;;27.73;17.30;;;4.40;99.90;;;;;;4972837;28;20033;-79
2023/12/07 07:32:52;;;;;;;30.85;17.73;;;4.50;99.90;;;;;;4972622;28;20105;-78
2023/12/07 07:35:18;;;;;;;27.60;17.98;;;4.50;99.90;;;;;;4972966;28;20038;-79
2023/12/07 07:37:44;;;;;;;32.92;18.58;;;4.50;99.90;;;;;;4972634;28;20023;-79
2023/12/07 07:40:11;;;;;;;23.73;15.95;;;4.50;99.90;;;;;;4972700;28;20454;-78
2023/12/07 07:42:40;;;;;;;29.20;18.25;;;4.60;99.90;;;;;;4987626;28;20057;-79
2023/12/07 07:45:09;;;;;;;28.63;18.08;;;4.60;99.90;;;;;;4972662;28;20114;-76
2023/12/07 07:47:35;;;;;;;30.17;18.67;;;4.60;99.90;;;;;;4972610;28;20023;-79
2023/12/07 07:50:05;;;;;;;28.08;18.38;;;4.60;99.90;;;;;;4972505;28;20030;-78
2023/12/07 07:52:35;;;;;;;29.58;19.40;;;4.70;99.90;;;;;;4975882;28;20037;-80
2023/12/07 07:55:05;;;;;;;28.45;18.27;;;4.80;99.90;;;;;;4976125;28;20047;-80
2023/12/07 07:57:31;;;;;;;37.03;18.80;;;4.80;99.90;;;;;;4976004;28;20043;-78
2023/12/07 07:59:57;;;;;;;26.73;16.35;;;4.80;99.90;;;;;;4976200;28;20112;-78
2023/12/07 08:02:24;;;;;;;29.10;16.55;;;4.80;99.90;;;;;;4975900;28;20022;-79
2023/12/07 08:04:51;;;;;;;28.50;18.33;;;4.80;99.90;;;;;;4976275;28;20027;-79
2023/12/07 08:07:17;;;;;;;30.67;18.20;;;4.90;99.90;;;;;;4975785;28;20030;-80
2023/12/07 08:09:43;;;;;;;30.73;19.00;;;4.90;99.90;;;;;;4975703;28;20402;-77
2023/12/07 08:12:09;;;;;;;29.25;19.38;;;5.00;99.90;;;;;;4975813;28;20023;-79
2023/12/07 08:14:36;;;;;;;28.25;17.13;;;5.00;99.90;;;;;;4975838;28;20066;-78
2023/12/07 08:17:03;;;;;;;27.95;17.08;;;4.90;99.90;;;;;;4975652;28;20035;-77
2023/12/07 08:19:29;;;;;;;28.23;18.23;;;4.90;99.90;;;;;;4975792;28;20462;-80
2023/12/07 08:21:55;;;;;;;29.45;17.95;;;5.00;99.90;;;;;;4975662;28;20037;-80
2023/12/07 08:24:20;;;;;;;28.15;17.92;;;5.00;99.90;;;;;;4975512;28;20045;-80
2023/12/07 08:26:46;;;;;;;27.83;16.60;;;5.00;99.90;;;;;;4975667;28;20023;-81
2023/12/07 08:29:13;;;;;;;27.08;16.65;;;5.00;99.90;;;;;;4975619;28;20170;-79
2023/12/07 08:31:40;;;;;;;30.67;18.05;;;5.00;99.90;;;;;;4975459;28;20529;-79
2023/12/07 08:34:06;;;;;;;33.05;20.30;;;5.00;99.90;;;;;;4975409;28;20525;-80
2023/12/07 08:36:32;;;;;;;35.42;21.60;;;5.10;99.90;;;;;;4975381;28;20023;-80
2023/12/07 08:38:58;;;;;;;29.58;18.95;;;5.00;99.90;;;;;;4975095;28;20391;-80
2023/12/07 08:41:24;;;;;;;26.70;16.67;;;5.00;99.90;;;;;;4975525;28;20023;-79
2023/12/07 08:43:50;;;;;;;27.48;17.05;;;5.10;99.90;;;;;;4975271;28;20098;-79
2023/12/07 08:46:15;;;;;;;25.70;16.88;;;5.10;99.90;;;;;;4975327;28;20046;-79
2023/12/07 08:48:41;;;;;;;26.88;16.38;;;5.10;99.90;;;;;;4975451;28;20046;-76
2023/12/07 08:51:08;;;;;;;26.77;16.25;;;5.10;99.90;;;;;;4975175;28;20157;-80
2023/12/07 08:53:40;;;;;;;22.70;14.43;;;5.20;99.90;;;;;;4975294;28;20054;-78
2023/12/07 08:56:06;;;;;;;23.48;13.82;;;5.20;99.90;;;;;;4975133;28;20058;-79
2023/12/07 08:58:32;;;;;;;24.05;14.10;;;5.20;99.90;;;;;;4957406;28;20532;-77
2023/12/07 09:00:58;;;;;;;23.08;14.23;;;5.30;99.90;;;;;;4974877;28;20026;-78
2023/12/07 09:03:27;;;;;;;22.05;14.60;;;5.30;99.90;;;;;;4974472;28;20412;-79
2023/12/07 09:05:54;;;;;;;21.25;13.27;;;5.30;99.90;;;;;;4974990;28;20393;-79
2023/12/07 09:08:19;;;;;;;23.13;13.55;;;5.40;99.90;;;;;;4974889;28;20470;-79
2023/12/07 09:10:45;;;;;;;20.27;12.48;;;5.30;99.90;;;;;;4974722;28;20117;-76
2023/12/07 09:13:11;;;;;;;21.58;13.90;;;5.30;99.90;;;;;;4974580;28;20054;-76
2023/12/07 09:15:37;;;;;;;23.23;13.30;;;5.30;99.90;;;;;;4974798;28;20038;-76
2023/12/07 09:18:03;;;;;;;23.15;13.93;;;5.30;99.90;;;;;;4974472;28;20429;-76
2023/12/07 09:20:29;;;;;;;22.80;14.15;;;5.40;99.90;;;;;;4974961;28;20023;-79
2023/12/07 09:22:57;;;;;;;23.80;12.82;;;5.40;99.90;;;;;;4974628;28;20074;-77
2023/12/07 09:25:23;;;;;;;23.23;14.10;;;5.30;99.90;;;;;;4974591;28;20026;-80
2023/12/07 09:27:49;;;;;;;19.38;12.27;;;5.30;99.90;;;;;;4974052;28;20030;-78
2023/12/07 09:30:14;;;;;;;21.88;12.13;;;5.30;99.90;;;;;;4974607;28;20027;-75
2023/12/07 09:32:42;;;;;;;20.25;11.40;;;5.30;99.90;;;;;;4974534;28;20023;-77
2023/12/07 09:35:18;;;;;;;22.83;13.25;;;5.30;99.90;;;;;;4974544;28;20474;-78
2023/12/07 09:37:45;;;;;;;21.88;12.23;;;5.30;99.90;;;;;;4974235;28;20038;-76
2023/12/07 09:40:17;;;;;;;20.52;12.13;;;5.30;99.90;;;;;;4974807;28;20493;-75
2023/12/07 09:42:43;;;;;;;21.13;12.50;;;5.30;99.90;;;;;;4974576;28;20027;-75
2023/12/07 09:45:10;;;;;;;22.67;13.48;;;5.30;99.90;;;;;;4974112;28;20382;-78
2023/12/07 09:47:37;;;;;;;18.92;11.02;;;5.20;99.90;;;;;;4974180;28;20031;-81
2023/12/07 09:50:11;;;;;;;23.77;12.63;;;5.30;99.90;;;;;;4974133;28;20085;-79
2023/12/07 09:52:38;;;;;;;16.63;10.68;;;5.30;99.90;;;;;;4973724;28;20117;-77
2023/12/07 09:55:05;;;;;;;17.77;10.80;;;5.40;99.90;;;;;;4974234;28;20125;-80
2023/12/07 09:57:33;;;;;;;19.42;11.23;;;5.40;99.90;;;;;;4973703;28;20101;-80
2023/12/07 09:59:59;;;;;;;23.77;12.80;;;5.40;99.90;;;;;;4974020;28;20035;-80
2023/12/07 10:02:26;;;;;;;19.35;10.70;;;5.50;99.90;;;;;;4973890;28;20380;-74
2023/12/07 10:05:18;;;;;;;14.23;8.07;;;5.40;99.90;;;;;;4974252;28;20026;-79
2023/12/07 10:07:48;;;;;;;16.30;8.13;;;5.40;99.90;;;;;;4972967;28;20081;-84
2023/12/07 10:10:16;;;;;;;15.85;8.40;;;5.40;99.90;;;;;;4973611;28;20039;-81
2023/12/07 10:13:08;;;;;;;14.68;8.38;;;5.40;99.90;;;;;;4973983;28;20449;-81
2023/12/07 10:15:33;;;;;;;14.10;8.02;;;5.40;99.90;;;;;;4971492;28;20039;-80
2023/12/07 10:17:59;;;;;;;17.25;9.15;;;5.40;99.90;;;;;;4973359;28;20146;-79
2023/12/07 10:20:28;;;;;;;15.82;10.07;;;5.40;99.90;;;;;;4973252;28;20030;-83
2023/12/07 10:23:09;;;;;;;14.60;6.95;;;5.40;99.90;;;;;;4973294;28;20027;-80
2023/12/07 10:25:41;;;;;;;15.48;7.55;;;5.40;99.90;;;;;;4962859;28;20034;-80
2023/12/07 10:28:13;;;;;;;17.88;8.65;;;5.50;99.90;;;;;;4973537;28;20027;-77
2023/12/07 10:30:41;;;;;;;14.82;8.73;;;5.60;99.90;;;;;;4973375;28;20045;-80
2023/12/07 10:33:07;;;;;;;11.85;6.82;;;5.50;99.90;;;;;;4973444;28;20019;-77
2023/12/07 10:35:38;;;;;;;12.50;7.18;;;5.40;99.90;;;;;;4973360;28;20034;-80
2023/12/07 10:38:04;;;;;;;12.70;7.53;;;5.30;99.90;;;;;;4973424;28;20021;-80
2023/12/07 10:40:33;;;;;;;12.98;7.05;;;5.30;99.90;;;;;;4973129;28;20034;-82
2023/12/07 10:43:04;;;;;;;12.60;7.18;;;5.30;99.90;;;;;;4972930;28;20042;-80
2023/12/07 10:45:30;;;;;;;15.35;7.55;;;5.30;99.90;;;;;;4973237;28;20042;-80
2023/12/07 10:48:07;;;;;;;16.08;9.23;;;5.30;99.90;;;;;;4973164;28;20069;-82
2023/12/07 10:50:41;;;;;;;15.95;8.65;;;5.30;99.90;;;;;;4973466;28;20054;-79
2023/12/07 10:53:40;;;;;;;19.25;10.73;;;5.30;99.90;;;;;;4973248;28;20027;-80
2023/12/07 10:56:10;;;;;;;16.58;8.30;;;5.30;99.90;;;;;;4932514;29;20066;-80
2023/12/07 10:58:37;;;;;;;19.58;10.32;;;5.30;99.90;;;;;;4932368;29;20197;-82
2023/12/07 11:01:05;;;;;;;17.83;10.63;;;5.30;99.90;;;;;;4932770;29;20035;-80
2023/12/07 11:03:31;;;;;;;18.73;9.75;;;5.40;99.90;;;;;;4932507;29;20149;-81
2023/12/07 11:05:57;;;;;;;21.80;11.98;;;5.40;99.90;;;;;;4931930;29;20055;-80
2023/12/07 11:08:29;;;;;;;19.77;10.07;;;5.50;99.90;;;;;;4931309;29;20134;-82
2023/12/07 11:11:20;;;;;;;18.40;10.25;;;5.50;99.90;;;;;;4932121;29;20055;-80
2023/12/07 11:13:53;;;;;;;17.33;9.38;;;5.60;99.90;;;;;;4932432;29;20036;-80
2023/12/07 11:16:40;;;;;;;16.73;8.82;;;5.60;99.90;;;;;;4932285;29;20043;-80
2023/12/07 11:19:29;;;;;;;15.70;8.57;;;5.70;99.90;;;;;;4931594;29;20035;-79
2023/12/07 11:22:02;;;;;;;15.25;8.05;;;5.70;99.90;;;;;;4932515;29;20056;-81
2023/12/07 11:24:28;;;;;;;14.75;9.00;;;5.70;99.90;;;;;;4932527;29;20040;-79
2023/12/07 11:26:57;;;;;;;18.92;9.65;;;5.70;99.90;;;;;;4935243;29;20043;-79
2023/12/07 11:29:29;;;;;;;18.70;11.10;;;5.70;99.90;;;;;;4936180;29;20039;-79
2023/12/07 11:32:07;;;;;;;19.67;10.13;;;5.70;99.90;;;;;;4922837;28;20031;-77
2023/12/07 11:34:41;;;;;;;18.65;10.13;;;5.70;99.90;;;;;;4977048;28;20051;-80
2023/12/07 11:37:08;;;;;;;17.45;11.05;;;5.70;99.90;;;;;;4978290;28;20027;-79
2023/12/07 11:39:41;;;;;;;18.80;10.00;;;5.70;99.90;;;;;;4977602;28;20031;-81
2023/12/07 11:42:10;;;;;;;17.42;9.63;;;5.70;99.90;;;;;;4976973;28;20169;-79
2023/12/07 11:44:46;;;;;;;18.05;10.55;;;5.70;99.90;;;;;;4977340;28;20034;-80
2023/12/07 11:47:17;;;;;;;21.80;11.75;;;5.90;99.90;;;;;;4976489;28;20474;-78
2023/12/07 11:49:43;;;;;;;18.70;12.23;;;5.70;99.90;;;;;;4976600;28;20058;-82
2023/12/07 11:52:14;;;;;;;20.73;11.55;;;5.70;99.90;;;;;;4976332;28;20074;-76
2023/12/07 11:54:42;;;;;;;20.55;11.45;;;5.70;99.90;;;;;;4976547;28;20031;-81
2023/12/07 11:57:08;;;;;;;21.27;11.93;;;5.70;99.90;;;;;;4975954;28;20042;-81
2023/12/07 11:59:34;;;;;;;20.85;13.25;;;5.70;99.90;;;;;;4958907;28;20038;-77
2023/12/07 12:02:04;;;;;;;19.77;10.15;;;5.70;99.90;;;;;;4976151;28;20027;-82
2023/12/07 12:04:30;;;;;;;18.48;9.75;;;5.70;99.90;;;;;;4976305;28;20030;-79
2023/12/07 12:06:56;;;;;;;20.75;10.82;;;5.60;99.90;;;;;;4975693;28;20050;-81
2023/12/07 12:09:24;;;;;;;18.25;9.85;;;5.60;99.90;;;;;;4976005;28;20077;-80
2023/12/07 12:11:50;;;;;;;21.33;11.30;;;5.60;99.90;;;;;;4975520;28;20035;-80
2023/12/07 12:14:17;;;;;;;17.67;10.70;;;5.50;99.90;;;;;;4975904;28;20027;-79
2023/12/07 12:16:45;;;;;;;17.20;9.57;;;5.50;99.90;;;;;;4976442;28;20058;-81
2023/12/07 12:19:11;;;;;;;17.58;9.57;;;5.50;99.90;;;;;;4975891;28;20482;-80
2023/12/07 12:21:40;;;;;;;17.15;9.93;;;5.40;99.90;;;;;;4976028;28;20049;-72
2023/12/07 12:24:08;;;;;;;18.02;8.20;;;5.40;99.90;;;;;;4977384;28;20030;-79
2023/12/07 12:26:36;;;;;;;15.88;9.10;;;5.40;99.90;;;;;;4978190;28;20133;-82
2023/12/07 12:29:03;;;;;;;16.98;9.35;;;5.40;99.90;;;;;;4977426;28;20034;-81
2023/12/07 12:31:29;;;;;;;16.92;9.48;;;5.40;99.90;;;;;;4975542;28;20097;-80
2023/12/07 12:33:56;;;;;;;24.00;11.07;;;5.40;99.90;;;;;;4975513;28;20035;-76
2023/12/07 12:36:23;;;;;;;19.90;10.65;;;5.40;99.90;;;;;;4975292;28;20031;-82
2023/12/07 12:38:52;;;;;;;18.42;10.45;;;5.40;99.90;;;;;;4974798;28;20046;-82